sensor_id;sensor_type;location;lat;lon;timestamp;P1;durP1;ratioP1;P2;durP2;ratioP2
17937;SDS011;16051;53.024;8.630;2023-04-03T00:02:10;4.90;;;1.90;;
17937;SDS011;16051;53.024;8.630;2023-04-03T00:06:12;4.07;;;1.40;;
17937;SDS011;16051;53.024;8.630;2023-04-03T00:10:16;4.40;;;1.83;;
17937;SDS011;16051;53.024;8.630;2023-04-03T00:14:27;4.27;;;1.60;;
17937;SDS011;16051;53.024;8.630;2023-04-03T00:18:29;5.47;;;1.60;;
17937;SDS011;16051;53.024;8.630;2023-04-03T00:22:32;3.27;;;1.63;;
17937;SDS011;16051;53.024;8.630;2023-04-03T00:26:36;2.07;;;1.47;;
17937;SDS011;16051;53.024;8.630;2023-04-03T00:30:38;3.20;;;1.50;;
17937;SDS011;16051;53.024;8.630;2023-04-03T00:34:40;3.50;;;1.60;;
17937;SDS011;16051;53.024;8.630;2023-04-03T00:38:42;4.63;;;1.63;;
17937;SDS011;16051;53.024;8.630;2023-04-03T00:42:46;4.00;;;1.67;;
17937;SDS011;16051;53.024;8.630;2023-04-03T00:46:52;2.80;;;1.50;;
17937;SDS011;16051;53.024;8.630;2023-04-03T00:50:54;3.77;;;1.27;;
17937;SDS011;16051;53.024;8.630;2023-04-03T00:54:58;3.97;;;1.50;;
17937;SDS011;16051;53.024;8.630;2023-04-03T00:59:12;2.67;;;1.53;;
17937;SDS011;16051;53.024;8.630;2023-04-03T01:03:17;2.90;;;1.60;;
17937;SDS011;16051;53.024;8.630;2023-04-03T01:07:21;5.73;;;2.00;;
17937;SDS011;16051;53.024;8.630;2023-04-03T01:11:27;2.83;;;1.60;;
17937;SDS011;16051;53.024;8.630;2023-04-03T01:15:32;3.13;;;1.70;;
17937;SDS011;16051;53.024;8.630;2023-04-03T01:19:35;2.93;;;1.50;;
17937;SDS011;16051;53.024;8.630;2023-04-03T01:23:58;4.53;;;2.00;;
17937;SDS011;16051;53.024;8.630;2023-04-03T01:28:14;2.63;;;1.50;;
17937;SDS011;16051;53.024;8.630;2023-04-03T01:32:22;3.43;;;1.70;;
17937;SDS011;16051;53.024;8.630;2023-04-03T01:36:25;2.50;;;1.53;;
17937;SDS011;16051;53.024;8.630;2023-04-03T01:40:30;2.53;;;1.50;;
17937;SDS011;16051;53.024;8.630;2023-04-03T01:44:32;2.10;;;1.47;;
17937;SDS011;16051;53.024;8.630;2023-04-03T01:48:38;2.03;;;1.50;;
17937;SDS011;16051;53.024;8.630;2023-04-03T01:52:40;4.03;;;1.70;;
17937;SDS011;16051;53.024;8.630;2023-04-03T01:56:43;6.27;;;2.20;;
17937;SDS011;16051;53.024;8.630;2023-04-03T02:00:45;3.27;;;1.50;;
17937;SDS011;16051;53.024;8.630;2023-04-03T02:04:51;4.70;;;1.63;;
17937;SDS011;16051;53.024;8.630;2023-04-03T02:08:54;3.80;;;1.53;;
17937;SDS011;16051;53.024;8.630;2023-04-03T02:12:56;2.60;;;1.60;;
17937;SDS011;16051;53.024;8.630;2023-04-03T02:16:59;3.07;;;1.83;;
17937;SDS011;16051;53.024;8.630;2023-04-03T02:21:06;2.70;;;1.60;;
17937;SDS011;16051;53.024;8.630;2023-04-03T02:25:10;2.87;;;1.40;;
17937;SDS011;16051;53.024;8.630;2023-04-03T02:29:13;3.80;;;1.50;;
17937;SDS011;16051;53.024;8.630;2023-04-03T02:33:15;3.83;;;1.77;;
17937;SDS011;16051;53.024;8.630;2023-04-03T02:37:20;3.17;;;1.60;;
17937;SDS011;16051;53.024;8.630;2023-04-03T02:41:22;4.97;;;1.90;;
17937;SDS011;16051;53.024;8.630;2023-04-03T02:45:25;4.80;;;1.90;;
17937;SDS011;16051;53.024;8.630;2023-04-03T02:49:27;4.87;;;1.90;;
17937;SDS011;16051;53.024;8.630;2023-04-03T02:53:35;2.80;;;1.70;;
17937;SDS011;16051;53.024;8.630;2023-04-03T02:57:37;3.13;;;2.13;;
17937;SDS011;16051;53.024;8.630;2023-04-03T03:01:39;3.50;;;1.63;;
17937;SDS011;16051;53.024;8.630;2023-04-03T03:05:42;4.97;;;1.73;;
17937;SDS011;16051;53.024;8.630;2023-04-03T03:09:46;4.63;;;1.80;;
17937;SDS011;16051;53.024;8.630;2023-04-03T03:13:48;2.90;;;1.80;;
17937;SDS011;16051;53.024;8.630;2023-04-03T03:17:50;3.57;;;1.97;;
17937;SDS011;16051;53.024;8.630;2023-04-03T03:21:52;3.77;;;1.70;;
17937;SDS011;16051;53.024;8.630;2023-04-03T03:30:21;3.13;;;1.87;;
17937;SDS011;16051;53.024;8.630;2023-04-03T03:34:23;3.77;;;2.10;;
17937;SDS011;16051;53.024;8.630;2023-04-03T03:38:25;2.93;;;1.67;;
17937;SDS011;16051;53.024;8.630;2023-04-03T03:42:30;4.27;;;1.80;;
17937;SDS011;16051;53.024;8.630;2023-04-03T03:46:32;3.80;;;1.73;;
17937;SDS011;16051;53.024;8.630;2023-04-03T03:50:42;2.97;;;1.57;;
17937;SDS011;16051;53.024;8.630;2023-04-03T03:54:44;6.73;;;2.20;;
17937;SDS011;16051;53.024;8.630;2023-04-03T03:58:58;2.57;;;1.57;;
17937;SDS011;16051;53.024;8.630;2023-04-03T04:03:00;2.97;;;1.63;;
17937;SDS011;16051;53.024;8.630;2023-04-03T04:07:03;4.20;;;1.90;;
17937;SDS011;16051;53.024;8.630;2023-04-03T04:11:23;2.93;;;1.80;;
17937;SDS011;16051;53.024;8.630;2023-04-03T04:15:28;5.03;;;1.70;;
17937;SDS011;16051;53.024;8.630;2023-04-03T04:19:31;3.93;;;1.90;;
17937;SDS011;16051;53.024;8.630;2023-04-03T04:27:40;4.10;;;1.50;;
17937;SDS011;16051;53.024;8.630;2023-04-03T04:31:43;3.93;;;1.90;;
17937;SDS011;16051;53.024;8.630;2023-04-03T04:36:01;3.17;;;1.73;;
17937;SDS011;16051;53.024;8.630;2023-04-03T04:40:04;3.87;;;2.03;;
17937;SDS011;16051;53.024;8.630;2023-04-03T04:44:08;4.60;;;2.07;;
17937;SDS011;16051;53.024;8.630;2023-04-03T04:48:11;2.67;;;1.70;;
17937;SDS011;16051;53.024;8.630;2023-04-03T04:56:46;3.23;;;1.73;;
17937;SDS011;16051;53.024;8.630;2023-04-03T05:00:48;5.50;;;1.80;;
17937;SDS011;16051;53.024;8.630;2023-04-03T05:04:51;4.50;;;2.00;;
17937;SDS011;16051;53.024;8.630;2023-04-03T05:09:04;3.50;;;2.10;;
17937;SDS011;16051;53.024;8.630;2023-04-03T05:13:06;4.77;;;2.47;;
17937;SDS011;16051;53.024;8.630;2023-04-03T05:17:08;4.50;;;2.00;;
17937;SDS011;16051;53.024;8.630;2023-04-03T05:21:12;4.40;;;2.10;;
17937;SDS011;16051;53.024;8.630;2023-04-03T05:25:22;5.53;;;2.27;;
17937;SDS011;16051;53.024;8.630;2023-04-03T05:29:24;6.67;;;2.73;;
17937;SDS011;16051;53.024;8.630;2023-04-03T05:33:26;4.37;;;2.80;;
17937;SDS011;16051;53.024;8.630;2023-04-03T05:37:30;4.10;;;2.43;;
17937;SDS011;16051;53.024;8.630;2023-04-03T05:41:32;6.07;;;3.00;;
17937;SDS011;16051;53.024;8.630;2023-04-03T05:45:34;6.00;;;2.83;;
17937;SDS011;16051;53.024;8.630;2023-04-03T05:49:36;7.13;;;2.40;;
17937;SDS011;16051;53.024;8.630;2023-04-03T05:53:42;6.70;;;2.50;;
17937;SDS011;16051;53.024;8.630;2023-04-03T05:57:54;6.73;;;2.90;;
17937;SDS011;16051;53.024;8.630;2023-04-03T06:01:56;4.00;;;2.33;;
17937;SDS011;16051;53.024;8.630;2023-04-03T06:05:58;3.97;;;3.00;;
17937;SDS011;16051;53.024;8.630;2023-04-03T06:10:06;7.10;;;3.10;;
17937;SDS011;16051;53.024;8.630;2023-04-03T06:14:10;4.30;;;2.57;;
17937;SDS011;16051;53.024;8.630;2023-04-03T06:18:13;4.00;;;2.13;;
17937;SDS011;16051;53.024;8.630;2023-04-03T06:22:15;5.13;;;2.20;;
17937;SDS011;16051;53.024;8.630;2023-04-03T06:26:19;3.10;;;2.10;;
17937;SDS011;16051;53.024;8.630;2023-04-03T06:30:22;4.97;;;2.70;;
17937;SDS011;16051;53.024;8.630;2023-04-03T06:34:24;4.97;;;1.70;;
17937;SDS011;16051;53.024;8.630;2023-04-03T06:42:57;5.27;;;2.40;;
17937;SDS011;16051;53.024;8.630;2023-04-03T06:47:13;11.33;;;3.33;;
17937;SDS011;16051;53.024;8.630;2023-04-03T06:51:29;5.53;;;1.60;;
17937;SDS011;16051;53.024;8.630;2023-04-03T07:03:56;3.87;;;1.63;;
17937;SDS011;16051;53.024;8.630;2023-04-03T07:07:58;5.13;;;1.70;;
17937;SDS011;16051;53.024;8.630;2023-04-03T07:12:01;5.50;;;1.33;;
17937;SDS011;16051;53.024;8.630;2023-04-03T07:20:38;3.70;;;1.50;;
17937;SDS011;16051;53.024;8.630;2023-04-03T07:24:40;3.73;;;1.53;;
17937;SDS011;16051;53.024;8.630;2023-04-03T07:28:42;4.30;;;1.47;;
17937;SDS011;16051;53.024;8.630;2023-04-03T07:32:49;3.80;;;1.57;;
17937;SDS011;16051;53.024;8.630;2023-04-03T07:36:52;4.23;;;1.60;;
17937;SDS011;16051;53.024;8.630;2023-04-03T07:40:54;1.93;;;1.27;;
17937;SDS011;16051;53.024;8.630;2023-04-03T07:49:12;3.77;;;1.53;;
17937;SDS011;16051;53.024;8.630;2023-04-03T07:53:14;4.13;;;1.47;;
17937;SDS011;16051;53.024;8.630;2023-04-03T07:57:17;3.83;;;1.77;;
17937;SDS011;16051;53.024;8.630;2023-04-03T08:01:19;2.33;;;0.97;;
17937;SDS011;16051;53.024;8.630;2023-04-03T08:05:23;3.03;;;1.33;;
17937;SDS011;16051;53.024;8.630;2023-04-03T08:09:36;3.07;;;1.20;;
17937;SDS011;16051;53.024;8.630;2023-04-03T08:13:38;4.03;;;1.23;;
17937;SDS011;16051;53.024;8.630;2023-04-03T08:17:41;3.07;;;1.07;;
17937;SDS011;16051;53.024;8.630;2023-04-03T08:21:45;6.00;;;1.50;;
17937;SDS011;16051;53.024;8.630;2023-04-03T08:25:49;2.67;;;1.10;;
17937;SDS011;16051;53.024;8.630;2023-04-03T08:29:51;3.87;;;1.00;;
17937;SDS011;16051;53.024;8.630;2023-04-03T08:33:53;3.43;;;1.03;;
17937;SDS011;16051;53.024;8.630;2023-04-03T08:37:58;2.13;;;1.03;;
17937;SDS011;16051;53.024;8.630;2023-04-03T08:42:02;3.47;;;1.00;;
17937;SDS011;16051;53.024;8.630;2023-04-03T08:46:16;2.63;;;1.03;;
17937;SDS011;16051;53.024;8.630;2023-04-03T08:50:24;1.90;;;0.97;;
17937;SDS011;16051;53.024;8.630;2023-04-03T08:54:35;1.50;;;0.70;;
17937;SDS011;16051;53.024;8.630;2023-04-03T08:58:55;1.83;;;0.87;;
17937;SDS011;16051;53.024;8.630;2023-04-03T09:03:10;4.47;;;1.67;;
17937;SDS011;16051;53.024;8.630;2023-04-03T09:07:16;3.07;;;1.37;;
17937;SDS011;16051;53.024;8.630;2023-04-03T09:15:58;1.87;;;1.37;;
17937;SDS011;16051;53.024;8.630;2023-04-03T09:20:07;3.97;;;1.77;;
17937;SDS011;16051;53.024;8.630;2023-04-03T09:24:28;2.67;;;1.30;;
17937;SDS011;16051;53.024;8.630;2023-04-03T09:28:47;1.87;;;0.93;;
17937;SDS011;16051;53.024;8.630;2023-04-03T09:32:51;5.00;;;1.40;;
17937;SDS011;16051;53.024;8.630;2023-04-03T09:37:08;3.47;;;1.00;;
17937;SDS011;16051;53.024;8.630;2023-04-03T09:41:13;1.47;;;1.00;;
17937;SDS011;16051;53.024;8.630;2023-04-03T09:45:23;2.53;;;1.07;;
17937;SDS011;16051;53.024;8.630;2023-04-03T09:49:27;1.43;;;1.00;;
17937;SDS011;16051;53.024;8.630;2023-04-03T09:53:34;1.67;;;0.80;;
17937;SDS011;16051;53.024;8.630;2023-04-03T09:57:40;2.03;;;0.97;;
17937;SDS011;16051;53.024;8.630;2023-04-03T10:01:56;1.70;;;0.83;;
17937;SDS011;16051;53.024;8.630;2023-04-03T10:06:02;2.27;;;0.70;;
17937;SDS011;16051;53.024;8.630;2023-04-03T10:14:29;0.90;;;0.63;;
17937;SDS011;16051;53.024;8.630;2023-04-03T10:18:37;3.23;;;0.70;;
17937;SDS011;16051;53.024;8.630;2023-04-03T10:22:49;2.37;;;0.70;;
17937;SDS011;16051;53.024;8.630;2023-04-03T10:27:04;1.23;;;0.77;;
17937;SDS011;16051;53.024;8.630;2023-04-03T10:31:15;1.60;;;0.60;;
17937;SDS011;16051;53.024;8.630;2023-04-03T10:35:33;2.93;;;0.67;;
17937;SDS011;16051;53.024;8.630;2023-04-03T10:39:59;1.70;;;0.70;;
17937;SDS011;16051;53.024;8.630;2023-04-03T10:44:16;1.80;;;0.83;;
17937;SDS011;16051;53.024;8.630;2023-04-03T10:48:49;1.23;;;0.67;;
17937;SDS011;16051;53.024;8.630;2023-04-03T10:53:10;1.77;;;0.80;;
17937;SDS011;16051;53.024;8.630;2023-04-03T10:57:22;3.17;;;1.00;;
17937;SDS011;16051;53.024;8.630;2023-04-03T11:05:37;2.07;;;1.27;;
17937;SDS011;16051;53.024;8.630;2023-04-03T11:09:56;2.50;;;1.20;;
17937;SDS011;16051;53.024;8.630;2023-04-03T11:14:05;3.43;;;1.20;;
17937;SDS011;16051;53.024;8.630;2023-04-03T11:18:26;2.50;;;1.10;;
17937;SDS011;16051;53.024;8.630;2023-04-03T11:22:37;1.47;;;0.70;;
17937;SDS011;16051;53.024;8.630;2023-04-03T11:26:44;0.70;;;0.70;;
17937;SDS011;16051;53.024;8.630;2023-04-03T11:30:47;0.93;;;0.90;;
17937;SDS011;16051;53.024;8.630;2023-04-03T11:35:04;2.13;;;1.10;;
17937;SDS011;16051;53.024;8.630;2023-04-03T11:39:10;1.77;;;0.93;;
17937;SDS011;16051;53.024;8.630;2023-04-03T11:48:01;2.33;;;1.00;;
17937;SDS011;16051;53.024;8.630;2023-04-03T11:52:08;1.50;;;1.37;;
17937;SDS011;16051;53.024;8.630;2023-04-03T11:56:28;2.70;;;1.30;;
17937;SDS011;16051;53.024;8.630;2023-04-03T12:00:53;1.73;;;1.00;;
17937;SDS011;16051;53.024;8.630;2023-04-03T12:05:25;1.13;;;0.90;;
17937;SDS011;16051;53.024;8.630;2023-04-03T12:09:31;3.13;;;1.10;;
17937;SDS011;16051;53.024;8.630;2023-04-03T12:14:04;1.77;;;1.30;;
17937;SDS011;16051;53.024;8.630;2023-04-03T12:23:22;1.33;;;1.20;;
17937;SDS011;16051;53.024;8.630;2023-04-03T12:27:43;3.47;;;1.30;;
17937;SDS011;16051;53.024;8.630;2023-04-03T12:31:47;3.57;;;1.27;;
17937;SDS011;16051;53.024;8.630;2023-04-03T12:36:15;2.03;;;1.20;;
17937;SDS011;16051;53.024;8.630;2023-04-03T12:40:30;2.03;;;1.23;;
17937;SDS011;16051;53.024;8.630;2023-04-03T12:44:46;2.40;;;1.23;;
17937;SDS011;16051;53.024;8.630;2023-04-03T12:49:01;2.63;;;1.30;;
17937;SDS011;16051;53.024;8.630;2023-04-03T12:53:21;1.53;;;1.27;;
17937;SDS011;16051;53.024;8.630;2023-04-03T12:57:36;2.03;;;1.20;;
17937;SDS011;16051;53.024;8.630;2023-04-03T13:01:38;2.00;;;1.47;;
17937;SDS011;16051;53.024;8.630;2023-04-03T13:05:40;2.97;;;1.27;;
17937;SDS011;16051;53.024;8.630;2023-04-03T13:09:56;2.17;;;1.40;;
17937;SDS011;16051;53.024;8.630;2023-04-03T13:14:05;2.00;;;1.30;;
17937;SDS011;16051;53.024;8.630;2023-04-03T13:18:21;3.10;;;1.50;;
17937;SDS011;16051;53.024;8.630;2023-04-03T13:22:27;2.63;;;1.50;;
17937;SDS011;16051;53.024;8.630;2023-04-03T13:26:40;1.80;;;1.17;;
17937;SDS011;16051;53.024;8.630;2023-04-03T13:30:59;1.90;;;1.23;;
17937;SDS011;16051;53.024;8.630;2023-04-03T13:35:24;3.00;;;1.40;;
17937;SDS011;16051;53.024;8.630;2023-04-03T13:39:30;3.40;;;1.20;;
17937;SDS011;16051;53.024;8.630;2023-04-03T13:43:36;2.20;;;1.23;;
17937;SDS011;16051;53.024;8.630;2023-04-03T13:47:39;3.40;;;1.70;;
17937;SDS011;16051;53.024;8.630;2023-04-03T13:51:44;4.40;;;1.47;;
17937;SDS011;16051;53.024;8.630;2023-04-03T13:55:55;2.33;;;1.20;;
17937;SDS011;16051;53.024;8.630;2023-04-03T14:04:51;2.93;;;1.37;;
17937;SDS011;16051;53.024;8.630;2023-04-03T14:08:59;2.03;;;1.43;;
17937;SDS011;16051;53.024;8.630;2023-04-03T14:13:09;1.83;;;1.20;;
17937;SDS011;16051;53.024;8.630;2023-04-03T14:17:16;2.77;;;1.60;;
17937;SDS011;16051;53.024;8.630;2023-04-03T14:21:22;1.60;;;1.23;;
17937;SDS011;16051;53.024;8.630;2023-04-03T14:25:25;3.87;;;1.50;;
17937;SDS011;16051;53.024;8.630;2023-04-03T14:33:40;3.50;;;1.50;;
17937;SDS011;16051;53.024;8.630;2023-04-03T14:37:42;2.63;;;1.10;;
17937;SDS011;16051;53.024;8.630;2023-04-03T14:41:45;2.00;;;1.23;;
17937;SDS011;16051;53.024;8.630;2023-04-03T14:45:55;3.63;;;2.10;;
17937;SDS011;16051;53.024;8.630;2023-04-03T14:49:59;1.63;;;1.10;;
17937;SDS011;16051;53.024;8.630;2023-04-03T14:54:02;2.03;;;1.20;;
17937;SDS011;16051;53.024;8.630;2023-04-03T14:58:13;1.93;;;1.10;;
17937;SDS011;16051;53.024;8.630;2023-04-03T15:02:24;2.23;;;1.20;;
17937;SDS011;16051;53.024;8.630;2023-04-03T15:06:32;2.40;;;1.30;;
17937;SDS011;16051;53.024;8.630;2023-04-03T15:10:35;2.57;;;1.53;;
17937;SDS011;16051;53.024;8.630;2023-04-03T15:14:48;3.03;;;1.43;;
17937;SDS011;16051;53.024;8.630;2023-04-03T15:18:50;2.00;;;1.30;;
17937;SDS011;16051;53.024;8.630;2023-04-03T15:22:54;1.60;;;1.17;;
17937;SDS011;16051;53.024;8.630;2023-04-03T15:31:07;2.23;;;1.10;;
17937;SDS011;16051;53.024;8.630;2023-04-03T15:35:10;4.53;;;1.40;;
17937;SDS011;16051;53.024;8.630;2023-04-03T15:39:14;2.23;;;1.30;;
17937;SDS011;16051;53.024;8.630;2023-04-03T15:43:16;2.10;;;1.17;;
17937;SDS011;16051;53.024;8.630;2023-04-03T15:47:18;2.33;;;1.27;;
17937;SDS011;16051;53.024;8.630;2023-04-03T15:51:21;1.97;;;1.30;;
17937;SDS011;16051;53.024;8.630;2023-04-03T15:55:27;3.00;;;1.40;;
17937;SDS011;16051;53.024;8.630;2023-04-03T15:59:32;2.97;;;1.27;;
17937;SDS011;16051;53.024;8.630;2023-04-03T16:03:34;2.23;;;1.53;;
17937;SDS011;16051;53.024;8.630;2023-04-03T16:07:36;1.53;;;1.10;;
17937;SDS011;16051;53.024;8.630;2023-04-03T16:11:41;2.43;;;1.03;;
17937;SDS011;16051;53.024;8.630;2023-04-03T16:15:43;2.00;;;1.30;;
17937;SDS011;16051;53.024;8.630;2023-04-03T16:19:52;2.60;;;1.47;;
17937;SDS011;16051;53.024;8.630;2023-04-03T16:23:56;3.13;;;1.63;;
17937;SDS011;16051;53.024;8.630;2023-04-03T16:28:06;1.50;;;1.23;;
17937;SDS011;16051;53.024;8.630;2023-04-03T16:32:08;3.10;;;1.53;;
17937;SDS011;16051;53.024;8.630;2023-04-03T16:36:11;3.10;;;1.33;;
17937;SDS011;16051;53.024;8.630;2023-04-03T16:40:19;4.60;;;1.60;;
17937;SDS011;16051;53.024;8.630;2023-04-03T16:44:36;2.53;;;1.20;;
17937;SDS011;16051;53.024;8.630;2023-04-03T16:48:39;4.07;;;1.83;;
17937;SDS011;16051;53.024;8.630;2023-04-03T16:52:42;3.83;;;2.57;;
17937;SDS011;16051;53.024;8.630;2023-04-03T16:56:46;2.53;;;1.57;;
17937;SDS011;16051;53.024;8.630;2023-04-03T17:00:54;3.20;;;1.87;;
17937;SDS011;16051;53.024;8.630;2023-04-03T17:04:56;2.90;;;1.30;;
17937;SDS011;16051;53.024;8.630;2023-04-03T17:08:58;3.67;;;1.70;;
17937;SDS011;16051;53.024;8.630;2023-04-03T17:13:16;2.93;;;1.33;;
17937;SDS011;16051;53.024;8.630;2023-04-03T17:21:51;4.77;;;2.60;;
17937;SDS011;16051;53.024;8.630;2023-04-03T17:25:53;5.47;;;3.93;;
17937;SDS011;16051;53.024;8.630;2023-04-03T17:34:03;3.50;;;1.83;;
17937;SDS011;16051;53.024;8.630;2023-04-03T17:38:05;4.97;;;1.97;;
17937;SDS011;16051;53.024;8.630;2023-04-03T17:42:08;5.33;;;1.77;;
17937;SDS011;16051;53.024;8.630;2023-04-03T17:46:10;2.30;;;1.70;;
17937;SDS011;16051;53.024;8.630;2023-04-03T17:50:13;4.77;;;2.23;;
17937;SDS011;16051;53.024;8.630;2023-04-03T17:54:16;3.30;;;1.40;;
17937;SDS011;16051;53.024;8.630;2023-04-03T18:03:12;2.77;;;2.47;;
17937;SDS011;16051;53.024;8.630;2023-04-03T18:11:24;1.80;;;1.47;;
17937;SDS011;16051;53.024;8.630;2023-04-03T18:15:28;3.33;;;2.33;;
17937;SDS011;16051;53.024;8.630;2023-04-03T18:19:38;3.73;;;2.60;;
17937;SDS011;16051;53.024;8.630;2023-04-03T18:23:42;3.93;;;3.10;;
17937;SDS011;16051;53.024;8.630;2023-04-03T18:27:48;4.70;;;2.37;;
17937;SDS011;16051;53.024;8.630;2023-04-03T18:31:59;3.90;;;2.33;;
17937;SDS011;16051;53.024;8.630;2023-04-03T18:36:15;3.40;;;2.13;;
17937;SDS011;16051;53.024;8.630;2023-04-03T18:40:19;4.03;;;2.20;;
17937;SDS011;16051;53.024;8.630;2023-04-03T18:44:21;4.03;;;1.83;;
17937;SDS011;16051;53.024;8.630;2023-04-03T18:48:26;4.23;;;2.40;;
17937;SDS011;16051;53.024;8.630;2023-04-03T18:52:28;4.77;;;2.07;;
17937;SDS011;16051;53.024;8.630;2023-04-03T18:56:37;5.67;;;2.00;;
17937;SDS011;16051;53.024;8.630;2023-04-03T19:00:39;3.17;;;2.20;;
17937;SDS011;16051;53.024;8.630;2023-04-03T19:04:44;3.27;;;1.70;;
17937;SDS011;16051;53.024;8.630;2023-04-03T19:08:47;3.27;;;1.47;;
17937;SDS011;16051;53.024;8.630;2023-04-03T19:12:53;4.50;;;2.07;;
17937;SDS011;16051;53.024;8.630;2023-04-03T19:16:55;4.60;;;2.20;;
17937;SDS011;16051;53.024;8.630;2023-04-03T19:20:58;2.93;;;2.00;;
17937;SDS011;16051;53.024;8.630;2023-04-03T19:25:06;4.13;;;2.23;;
17937;SDS011;16051;53.024;8.630;2023-04-03T19:33:40;4.90;;;2.57;;
17937;SDS011;16051;53.024;8.630;2023-04-03T19:37:43;3.30;;;2.10;;
17937;SDS011;16051;53.024;8.630;2023-04-03T19:41:48;6.87;;;3.37;;
17937;SDS011;16051;53.024;8.630;2023-04-03T19:45:57;2.10;;;1.60;;
17937;SDS011;16051;53.024;8.630;2023-04-03T19:49:59;3.13;;;1.90;;
17937;SDS011;16051;53.024;8.630;2023-04-03T19:54:02;2.80;;;1.70;;
17937;SDS011;16051;53.024;8.630;2023-04-03T19:58:05;3.67;;;1.40;;
17937;SDS011;16051;53.024;8.630;2023-04-03T20:02:09;3.30;;;1.53;;
17937;SDS011;16051;53.024;8.630;2023-04-03T20:06:13;2.37;;;1.60;;
17937;SDS011;16051;53.024;8.630;2023-04-03T20:10:23;5.37;;;1.90;;
17937;SDS011;16051;53.024;8.630;2023-04-03T20:14:25;5.20;;;1.93;;
17937;SDS011;16051;53.024;8.630;2023-04-03T20:18:29;2.23;;;1.60;;
17937;SDS011;16051;53.024;8.630;2023-04-03T20:22:32;3.13;;;1.50;;
17937;SDS011;16051;53.024;8.630;2023-04-03T20:26:36;2.63;;;1.33;;
17937;SDS011;16051;53.024;8.630;2023-04-03T20:30:45;2.97;;;1.40;;
17937;SDS011;16051;53.024;8.630;2023-04-03T20:34:51;3.80;;;1.50;;
17937;SDS011;16051;53.024;8.630;2023-04-03T20:38:54;2.07;;;1.17;;
17937;SDS011;16051;53.024;8.630;2023-04-03T20:42:56;1.73;;;1.20;;
17937;SDS011;16051;53.024;8.630;2023-04-03T20:47:17;2.07;;;1.10;;
17937;SDS011;16051;53.024;8.630;2023-04-03T20:51:20;3.67;;;1.30;;
17937;SDS011;16051;53.024;8.630;2023-04-03T20:55:22;3.17;;;1.30;;
17937;SDS011;16051;53.024;8.630;2023-04-03T20:59:25;2.90;;;1.20;;
17937;SDS011;16051;53.024;8.630;2023-04-03T21:03:28;2.23;;;1.20;;
17937;SDS011;16051;53.024;8.630;2023-04-03T21:22:31;2.57;;;1.40;;
17937;SDS011;16051;53.024;8.630;2023-04-03T21:26:33;2.97;;;1.17;;
17937;SDS011;16051;53.024;8.630;2023-04-03T21:30:35;4.67;;;1.57;;
17937;SDS011;16051;53.024;8.630;2023-04-03T21:34:51;4.60;;;1.40;;
17937;SDS011;16051;53.024;8.630;2023-04-03T21:38:55;2.03;;;1.23;;
17937;SDS011;16051;53.024;8.630;2023-04-03T21:42:57;1.53;;;1.00;;
17937;SDS011;16051;53.024;8.630;2023-04-03T21:47:00;2.03;;;1.27;;
17937;SDS011;16051;53.024;8.630;2023-04-03T21:51:03;2.10;;;1.20;;
17937;SDS011;16051;53.024;8.630;2023-04-03T21:55:07;3.27;;;1.50;;
17937;SDS011;16051;53.024;8.630;2023-04-03T21:59:10;5.90;;;1.60;;
17937;SDS011;16051;53.024;8.630;2023-04-03T22:03:17;4.03;;;1.80;;
17937;SDS011;16051;53.024;8.630;2023-04-03T22:07:22;3.30;;;1.40;;
17937;SDS011;16051;53.024;8.630;2023-04-03T22:11:24;2.63;;;1.30;;
17937;SDS011;16051;53.024;8.630;2023-04-03T22:15:28;4.67;;;1.43;;
17937;SDS011;16051;53.024;8.630;2023-04-03T22:19:30;3.30;;;1.50;;
17937;SDS011;16051;53.024;8.630;2023-04-03T22:23:34;1.33;;;1.10;;
17937;SDS011;16051;53.024;8.630;2023-04-03T22:27:36;2.73;;;1.83;;
17937;SDS011;16051;53.024;8.630;2023-04-03T22:36:15;2.23;;;1.30;;
17937;SDS011;16051;53.024;8.630;2023-04-03T22:40:18;3.97;;;1.60;;
17937;SDS011;16051;53.024;8.630;2023-04-03T22:44:28;7.57;;;2.23;;
17937;SDS011;16051;53.024;8.630;2023-04-03T22:48:30;2.60;;;1.47;;
17937;SDS011;16051;53.024;8.630;2023-04-03T22:52:33;1.87;;;1.50;;
17937;SDS011;16051;53.024;8.630;2023-04-03T22:56:36;3.27;;;1.73;;
17937;SDS011;16051;53.024;8.630;2023-04-03T23:00:48;2.00;;;1.50;;
17937;SDS011;16051;53.024;8.630;2023-04-03T23:04:50;2.43;;;1.20;;
17937;SDS011;16051;53.024;8.630;2023-04-03T23:08:52;1.40;;;1.20;;
17937;SDS011;16051;53.024;8.630;2023-04-03T23:12:56;2.43;;;1.33;;
17937;SDS011;16051;53.024;8.630;2023-04-03T23:16:58;2.17;;;1.40;;
17937;SDS011;16051;53.024;8.630;2023-04-03T23:21:04;3.23;;;1.83;;
17937;SDS011;16051;53.024;8.630;2023-04-03T23:25:07;2.93;;;1.47;;
17937;SDS011;16051;53.024;8.630;2023-04-03T23:29:11;5.20;;;2.10;;
17937;SDS011;16051;53.024;8.630;2023-04-03T23:37:42;3.57;;;1.83;;
17937;SDS011;16051;53.024;8.630;2023-04-03T23:46:22;3.20;;;1.57;;
17937;SDS011;16051;53.024;8.630;2023-04-03T23:50:24;2.30;;;1.67;;
17937;SDS011;16051;53.024;8.630;2023-04-03T23:54:26;4.57;;;1.60;;
17937;SDS011;16051;53.024;8.630;2023-04-03T23:58:36;2.63;;;1.70;;
